Blue Star 1 — SWET — position and weather

sailwx.info

Track history (hours):
 
Tides and Currents Weather Stations Pressure Air Temp Water Temp Dewpoint Dewpoint Depression Visibility Wind Speed Wind Dir Waves Ship Positions

Blue Star 1

Last reported at 2014-Oct-23 18:33 UTC. Time now 2014-Oct-23 19:21 UTC.
Position N 37°08' E 024°40'.

Length 176 m; draft 6.5 m.

Type: Passenger vessel. MMSI: 239710000.

Date/timePositionNaut miles runAvg speedWind from/ knotsBaromVisibWave heightAir tempDewpointWater temp
2014-Oct-23 18:33N 37°08' E 024°40'2221.7
2014-Oct-23 17:33N 37°19' E 024°17'2621.9
2014-Oct-23 16:21N 37°35' E 023°50'1721.7
2014-Oct-23 15:33N 37°49' E 023°37'8 7.6
2014-Oct-23 14:33N 37°56' E 023°38'0 0.0
2014-Oct-23 13:33N 37°56' E 023°38'0 0.0
2014-Oct-23 12:33N 37°56' E 023°38'0 0.0
2014-Oct-23 11:33N 37°56' E 023°38'0 0.0
2014-Oct-23 10:33N 37°56' E 023°38'0 0.0
2014-Oct-23 09:33N 37°56' E 023°38'0 0.0
2014-Oct-23 08:33N 37°56' E 023°38'0 0.0
2014-Oct-23 07:33N 37°56' E 023°38'0 0.0
2014-Oct-23 06:34N 37°56' E 023°38'0 0.0
2014-Oct-23 05:33N 37°56' E 023°38'3 3.0
2014-Oct-23 04:33N 37°53' E 023°37'2221.3
2014-Oct-23 03:30N 37°36' E 023°55'2020.8
2014-Oct-23 02:33N 37°22' E 024°14'2020.3
2014-Oct-23 01:33N 37°12' E 024°35'2222.0
2014-Oct-23 00:33N 36°56' E 024°54'2221.9
2014-Oct-22 23:34N 36°41' E 025°13'2019.9
2014-Oct-22 22:34N 36°23' E 025°26'6 5.8
2014-Oct-22 21:34N 36°28' E 025°21'2121.1
2014-Oct-22 20:34N 36°36' E 025°45'2221.5
2014-Oct-22 19:34N 36°43' E 026°11'9 0.4
2014-Oct-22 00:27N 36°45' E 026°21'2022.5
2014-Oct-21 23:33N 36°39' E 025°58'2222.0
2014-Oct-21 22:33N 36°33' E 025°31'1010.4
2014-Oct-21 21:33N 36°23' E 025°26'1212.1
2014-Oct-21 20:33N 36°34' E 025°18'2221.7
2014-Oct-21 19:33N 36°51' E 025°02'2222.1
2014-Oct-21 18:33N 37°06' E 024°42'2222.0
2014-Oct-21 17:33N 37°18' E 024°19'2221.9
2014-Oct-21 16:33N 37°32' E 023°57'2121.2
2014-Oct-21 15:33N 37°47' E 023°39'9 9.4
2014-Oct-21 14:33N 37°56' E 023°38'0 0.0
2014-Oct-21 13:33N 37°56' E 023°38'0 0.0
2014-Oct-21 12:33N 37°56' E 023°38'0 0.0
2014-Oct-21 11:33N 37°56' E 023°38'0 0.0
2014-Oct-21 10:33N 37°56' E 023°38'0 0.0
2014-Oct-21 09:33N 37°56' E 023°38'0 0.0
2014-Oct-21 08:33N 37°56' E 023°38'0 0.0
2014-Oct-21 07:33N 37°56' E 023°38'0 0.0
2014-Oct-21 06:33N 37°56' E 023°38'0 0.0
2014-Oct-21 05:33N 37°56' E 023°38'0 0.0
2014-Oct-21 04:33N 37°56' E 023°38'1716.7
2014-Oct-21 03:33N 37°41' E 023°47'8822.0
2014-Oct-20 23:32N 36°44' E 025°11'2221.9
2014-Oct-20 22:33N 36°25' E 025°25'0 0.2
2014-Oct-20 21:33N 36°25' E 025°24'1717.0
2014-Oct-20 20:33N 36°36' E 025°41'2221.9
2014-Oct-20 19:33N 36°41' E 026°08'9 0.5
2014-Oct-20 00:23N 36°45' E 026°17'1821.8
2014-Oct-19 23:33N 36°39' E 025°56'2121.8
2014-Oct-19 22:33N 36°32' E 025°30'10 9.7
2014-Oct-19 21:32N 36°23' E 025°26'1313.4
2014-Oct-19 20:32N 36°27' E 025°10'9321.7
2014-Oct-19 16:14N 37°34' E 023°49'1622.8
2014-Oct-19 15:32N 37°48' E 023°38'9 8.7
2014-Oct-19 14:32N 37°56' E 023°38'0 0.0
2014-Oct-19 13:32N 37°56' E 023°38'0 0.0
2014-Oct-19 12:32N 37°56' E 023°38'0 0.0
2014-Oct-19 11:32N 37°56' E 023°38'0 0.0
2014-Oct-19 10:29N 37°56' E 023°38'0 0.0
2014-Oct-19 09:32N 37°56' E 023°38'0 0.0
2014-Oct-19 08:32N 37°56' E 023°38'0 0.0
2014-Oct-19 07:32N 37°56' E 023°38'0 0.0
2014-Oct-19 06:32N 37°56' E 023°38'0 0.0
2014-Oct-19 05:32N 37°56' E 023°38'0 0.0
2014-Oct-19 04:32N 37°56' E 023°38'0 0.0
2014-Oct-19 03:31N 37°56' E 023°38'0 0.0
2014-Oct-19 02:31N 37°56' E 023°38'0 0.0
2014-Oct-19 01:28N 37°56' E 023°38'0 0.0
2014-Oct-19 00:28N 37°56' E 023°38'0 0.0
2014-Oct-18 23:31N 37°56' E 023°38'0 0.0
2014-Oct-18 22:28N 37°56' E 023°38'0 0.0
2014-Oct-18 21:31N 37°56' E 023°38'0 0.0
2014-Oct-18 20:31N 37°56' E 023°38'0 0.0
2014-Oct-18 19:31N 37°56' E 023°38'0 0.0
2014-Oct-18 18:31N 37°56' E 023°38'0 0.0
2014-Oct-18 17:33N 37°56' E 023°38'0 0.0
2014-Oct-18 16:33N 37°56' E 023°38'0 0.0
2014-Oct-18 15:33N 37°56' E 023°38'0 0.0
2014-Oct-18 14:33N 37°56' E 023°38'0 0.0
2014-Oct-18 13:33N 37°56' E 023°38'0 0.0
2014-Oct-18 12:33N 37°56' E 023°38'0 0.0
2014-Oct-18 11:33N 37°56' E 023°38'0 0.0
2014-Oct-18 10:33N 37°56' E 023°38'0 0.0
2014-Oct-18 09:33N 37°56' E 023°38'0 0.0
2014-Oct-18 08:32N 37°56' E 023°38'0 0.0
2014-Oct-18 07:32N 37°56' E 023°38'0 0.0
2014-Oct-18 06:32N 37°56' E 023°38'0 0.0
2014-Oct-18 05:32N 37°56' E 023°38'1 0.9
2014-Oct-18 04:33N 37°56' E 023°37'1918.9
2014-Oct-18 03:33N 37°39' E 023°48'8721.5
2014-Oct-17 23:32N 36°44' E 025°11'2121.8
2014-Oct-17 22:34N 36°25' E 025°24'0 0.5
2014-Oct-17 21:33N 36°25' E 025°25'1616.2
2014-Oct-17 20:33N 36°35' E 025°41'2222.0
2014-Oct-17 19:33N 36°41' E 026°07'2222.3
2014-Oct-17 18:33N 36°47' E 026°34'2221.9
2014-Oct-17 17:33N 36°53' E 027°00'1413.8
2014-Oct-17 16:32N 36°54' E 027°18'3114.6
2014-Oct-17 14:23N 36°32' E 027°46'31 2.9
2014-Oct-17 03:28N 36°54' E 027°18'2 2.4
2014-Oct-17 02:33N 36°56' E 027°17'2222.2
2014-Oct-17 01:33N 36°51' E 026°50'2322.5
2014-Oct-17 00:33N 36°45' E 026°23'2222.4
2014-Oct-16 23:33N 36°38' E 025°56'2222.2
2014-Oct-16 22:33N 36°32' E 025°30'10 9.8
2014-Oct-16 21:33N 36°23' E 025°26'1111.1
2014-Oct-16 20:33N 36°33' E 025°18'2821.7
2014-Oct-16 19:14N 36°55' E 024°57'2422.3
2014-Oct-16 18:11N 37°11' E 024°35'3622.3
2014-Oct-16 16:33N 37°32' E 023°57'2121.5
2014-Oct-16 15:33N 37°47' E 023°39'9 9.2
2014-Oct-16 14:33N 37°56' E 023°38'0 0.0
2014-Oct-16 13:32N 37°56' E 023°38'0 0.0
2014-Oct-16 12:32N 37°56' E 023°38'0 0.0
2014-Oct-16 11:32N 37°56' E 023°38'0 0.0
2014-Oct-16 10:32N 37°56' E 023°38'0 0.0
2014-Oct-16 09:32N 37°56' E 023°38'0 0.0
2014-Oct-16 08:31N 37°56' E 023°38'0 0.0
2014-Oct-16 07:31N 37°56' E 023°38'0 0.0
2014-Oct-16 06:31N 37°56' E 023°38'0 0.0
2014-Oct-16 05:31N 37°56' E 023°38'0 0.0
2014-Oct-16 04:31N 37°56' E 023°38'1515.6
2014-Oct-16 03:33N 37°43' E 023°45'5522.5
2014-Oct-16 01:07N 37°09' E 024°39'3722.4
2014-Oct-15 23:28N 36°43' E 025°12'2022.4
2014-Oct-15 22:33N 36°25' E 025°24'0 0.1
2014-Oct-15 21:33N 36°25' E 025°25'1616.4
2014-Oct-15 20:33N 36°35' E 025°41'2222.0
2014-Oct-15 19:33N 36°41' E 026°07'2222.3
2014-Oct-15 18:33N 36°48' E 026°34'2222.0
2014-Oct-15 17:33N 36°53' E 027°00'1413.7
2014-Oct-15 16:32N 36°54' E 027°18'1211.3
2014-Oct-15 15:30N 36°42' E 027°21'2119.8
2014-Oct-15 14:28N 36°33' E 027°43'65 4.7
2014-Oct-15 00:33N 36°46' E 026°23'2222.3
2014-Oct-14 23:34N 36°39' E 025°57'2222.1
2014-Oct-14 22:34N 36°32' E 025°31'10 9.8
2014-Oct-14 21:32N 36°23' E 025°26'1010.5
2014-Oct-14 20:33N 36°32' E 025°19'2221.6
2014-Oct-14 19:33N 36°50' E 025°04'2222.2
2014-Oct-14 18:33N 37°05' E 024°44'2221.7
2014-Oct-14 17:33N 37°18' E 024°21'3022.2
2014-Oct-14 16:12N 37°35' E 023°51'1421.7
2014-Oct-14 15:34N 37°46' E 023°40'1110.2
2014-Oct-14 14:31N 37°56' E 023°38'0 0.0
2014-Oct-14 13:31N 37°56' E 023°38'0 0.0
2014-Oct-14 12:31N 37°56' E 023°38'0 0.0
2014-Oct-14 11:33N 37°56' E 023°38'0 0.0
2014-Oct-14 10:33N 37°56' E 023°38'0 0.0
2014-Oct-14 09:33N 37°56' E 023°38'0 0.0
2014-Oct-14 08:33N 37°56' E 023°38'0 0.0
2014-Oct-14 07:33N 37°56' E 023°38'0 0.0
2014-Oct-14 06:33N 37°56' E 023°38'0 0.0
2014-Oct-14 05:33N 37°56' E 023°38'0 0.0
2014-Oct-14 04:33N 37°56' E 023°38'1414.4
2014-Oct-14 03:34N 37°43' E 023°44'2622.5
2014-Oct-14 02:24N 37°25' E 024°08'1922.7
2014-Oct-14 01:33N 37°15' E 024°28'2322.8
2014-Oct-14 00:33N 37°00' E 024°50'2322.7
2014-Oct-13 23:33N 36°44' E 025°10'2222.5
2014-Oct-13 22:33N 36°25' E 025°25'1 0.8
2014-Oct-13 21:33N 36°24' E 025°25'1616.0
2014-Oct-13 20:34N 36°35' E 025°40'2222.1
2014-Oct-13 19:33N 36°41' E 026°06'  
Track history (hours):
 
Tides and Currents Weather Stations Pressure Air Temp Water Temp Dewpoint Dewpoint Depression Visibility Wind Speed Wind Dir Waves Ship Positions

Blue Star 1

Last reported at 2014-Oct-23 18:33 UTC. Time now 2014-Oct-23 19:21 UTC.
Position N 37°08' E 024°40'.

Length 176 m; draft 6.5 m.

Type: Passenger vessel. MMSI: 239710000.

Date/timePositionNaut miles runAvg speedWind from/ knotsBaromVisibWave heightAir tempDewpointWater temp
2014-Oct-23 18:33N 37°08' E 024°40'2221.7
2014-Oct-23 17:33N 37°19' E 024°17'2621.9
2014-Oct-23 16:21N 37°35' E 023°50'1721.7
2014-Oct-23 15:33N 37°49' E 023°37'8 7.6
2014-Oct-23 14:33N 37°56' E 023°38'0 0.0
2014-Oct-23 13:33N 37°56' E 023°38'0 0.0
2014-Oct-23 12:33N 37°56' E 023°38'0 0.0
2014-Oct-23 11:33N 37°56' E 023°38'0 0.0
2014-Oct-23 10:33N 37°56' E 023°38'0 0.0
2014-Oct-23 09:33N 37°56' E 023°38'0 0.0
2014-Oct-23 08:33N 37°56' E 023°38'0 0.0
2014-Oct-23 07:33N 37°56' E 023°38'0 0.0
2014-Oct-23 06:34N 37°56' E 023°38'0 0.0
2014-Oct-23 05:33N 37°56' E 023°38'3 3.0
2014-Oct-23 04:33N 37°53' E 023°37'2221.3
2014-Oct-23 03:30N 37°36' E 023°55'2020.8
2014-Oct-23 02:33N 37°22' E 024°14'2020.3
2014-Oct-23 01:33N 37°12' E 024°35'2222.0
2014-Oct-23 00:33N 36°56' E 024°54'2221.9
2014-Oct-22 23:34N 36°41' E 025°13'2019.9
2014-Oct-22 22:34N 36°23' E 025°26'6 5.8
2014-Oct-22 21:34N 36°28' E 025°21'2121.1
2014-Oct-22 20:34N 36°36' E 025°45'2221.5
2014-Oct-22 19:34N 36°43' E 026°11'9 0.4
2014-Oct-22 00:27N 36°45' E 026°21'2022.5
2014-Oct-21 23:33N 36°39' E 025°58'2222.0
2014-Oct-21 22:33N 36°33' E 025°31'1010.4
2014-Oct-21 21:33N 36°23' E 025°26'1212.1
2014-Oct-21 20:33N 36°34' E 025°18'2221.7
2014-Oct-21 19:33N 36°51' E 025°02'2222.1
2014-Oct-21 18:33N 37°06' E 024°42'2222.0
2014-Oct-21 17:33N 37°18' E 024°19'2221.9
2014-Oct-21 16:33N 37°32' E 023°57'2121.2
2014-Oct-21 15:33N 37°47' E 023°39'9 9.4
2014-Oct-21 14:33N 37°56' E 023°38'0 0.0
2014-Oct-21 13:33N 37°56' E 023°38'0 0.0
2014-Oct-21 12:33N 37°56' E 023°38'0 0.0
2014-Oct-21 11:33N 37°56' E 023°38'0 0.0
2014-Oct-21 10:33N 37°56' E 023°38'0 0.0
2014-Oct-21 09:33N 37°56' E 023°38'0 0.0
2014-Oct-21 08:33N 37°56' E 023°38'0 0.0
2014-Oct-21 07:33N 37°56' E 023°38'0 0.0
2014-Oct-21 06:33N 37°56' E 023°38'0 0.0
2014-Oct-21 05:33N 37°56' E 023°38'0 0.0
2014-Oct-21 04:33N 37°56' E 023°38'1716.7
2014-Oct-21 03:33N 37°41' E 023°47'8822.0
2014-Oct-20 23:32N 36°44' E 025°11'2221.9
2014-Oct-20 22:33N 36°25' E 025°25'0 0.2
2014-Oct-20 21:33N 36°25' E 025°24'1717.0
2014-Oct-20 20:33N 36°36' E 025°41'2221.9
2014-Oct-20 19:33N 36°41' E 026°08'9 0.5
2014-Oct-20 00:23N 36°45' E 026°17'1821.8
2014-Oct-19 23:33N 36°39' E 025°56'2121.8
2014-Oct-19 22:33N 36°32' E 025°30'10 9.7
2014-Oct-19 21:32N 36°23' E 025°26'1313.4
2014-Oct-19 20:32N 36°27' E 025°10'9321.7
2014-Oct-19 16:14N 37°34' E 023°49'1622.8
2014-Oct-19 15:32N 37°48' E 023°38'9 8.7
2014-Oct-19 14:32N 37°56' E 023°38'0 0.0
2014-Oct-19 13:32N 37°56' E 023°38'0 0.0
2014-Oct-19 12:32N 37°56' E 023°38'0 0.0
2014-Oct-19 11:32N 37°56' E 023°38'0 0.0
2014-Oct-19 10:29N 37°56' E 023°38'0 0.0
2014-Oct-19 09:32N 37°56' E 023°38'0 0.0
2014-Oct-19 08:32N 37°56' E 023°38'0 0.0
2014-Oct-19 07:32N 37°56' E 023°38'0 0.0
2014-Oct-19 06:32N 37°56' E 023°38'0 0.0
2014-Oct-19 05:32N 37°56' E 023°38'0 0.0
2014-Oct-19 04:32N 37°56' E 023°38'0 0.0
2014-Oct-19 03:31N 37°56' E 023°38'0 0.0
2014-Oct-19 02:31N 37°56' E 023°38'0 0.0
2014-Oct-19 01:28N 37°56' E 023°38'0 0.0
2014-Oct-19 00:28N 37°56' E 023°38'0 0.0
2014-Oct-18 23:31N 37°56' E 023°38'0 0.0
2014-Oct-18 22:28N 37°56' E 023°38'0 0.0
2014-Oct-18 21:31N 37°56' E 023°38'0 0.0
2014-Oct-18 20:31N 37°56' E 023°38'0 0.0
2014-Oct-18 19:31N 37°56' E 023°38'0 0.0
2014-Oct-18 18:31N 37°56' E 023°38'0 0.0
2014-Oct-18 17:33N 37°56' E 023°38'0 0.0
2014-Oct-18 16:33N 37°56' E 023°38'0 0.0
2014-Oct-18 15:33N 37°56' E 023°38'0 0.0
2014-Oct-18 14:33N 37°56' E 023°38'0 0.0
2014-Oct-18 13:33N 37°56' E 023°38'0 0.0
2014-Oct-18 12:33N 37°56' E 023°38'0 0.0
2014-Oct-18 11:33N 37°56' E 023°38'0 0.0
2014-Oct-18 10:33N 37°56' E 023°38'0 0.0
2014-Oct-18 09:33N 37°56' E 023°38'0 0.0
2014-Oct-18 08:32N 37°56' E 023°38'0 0.0
2014-Oct-18 07:32N 37°56' E 023°38'0 0.0
2014-Oct-18 06:32N 37°56' E 023°38'0 0.0
2014-Oct-18 05:32N 37°56' E 023°38'1 0.9
2014-Oct-18 04:33N 37°56' E 023°37'1918.9
2014-Oct-18 03:33N 37°39' E 023°48'8721.5
2014-Oct-17 23:32N 36°44' E 025°11'2121.8
2014-Oct-17 22:34N 36°25' E 025°24'0 0.5
2014-Oct-17 21:33N 36°25' E 025°25'1616.2
2014-Oct-17 20:33N 36°35' E 025°41'2222.0
2014-Oct-17 19:33N 36°41' E 026°07'2222.3
2014-Oct-17 18:33N 36°47' E 026°34'2221.9
2014-Oct-17 17:33N 36°53' E 027°00'1413.8
2014-Oct-17 16:32N 36°54' E 027°18'3114.6
2014-Oct-17 14:23N 36°32' E 027°46'31 2.9
2014-Oct-17 03:28N 36°54' E 027°18'2 2.4
2014-Oct-17 02:33N 36°56' E 027°17'2222.2
2014-Oct-17 01:33N 36°51' E 026°50'2322.5
2014-Oct-17 00:33N 36°45' E 026°23'2222.4
2014-Oct-16 23:33N 36°38' E 025°56'2222.2
2014-Oct-16 22:33N 36°32' E 025°30'10 9.8
2014-Oct-16 21:33N 36°23' E 025°26'1111.1
2014-Oct-16 20:33N 36°33' E 025°18'2821.7
2014-Oct-16 19:14N 36°55' E 024°57'2422.3
2014-Oct-16 18:11N 37°11' E 024°35'3622.3
2014-Oct-16 16:33N 37°32' E 023°57'2121.5
2014-Oct-16 15:33N 37°47' E 023°39'9 9.2
2014-Oct-16 14:33N 37°56' E 023°38'0 0.0
2014-Oct-16 13:32N 37°56' E 023°38'0 0.0
2014-Oct-16 12:32N 37°56' E 023°38'0 0.0
2014-Oct-16 11:32N 37°56' E 023°38'0 0.0
2014-Oct-16 10:32N 37°56' E 023°38'0 0.0
2014-Oct-16 09:32N 37°56' E 023°38'0 0.0
2014-Oct-16 08:31N 37°56' E 023°38'0 0.0
2014-Oct-16 07:31N 37°56' E 023°38'0 0.0
2014-Oct-16 06:31N 37°56' E 023°38'0 0.0
2014-Oct-16 05:31N 37°56' E 023°38'0 0.0
2014-Oct-16 04:31N 37°56' E 023°38'1515.6
2014-Oct-16 03:33N 37°43' E 023°45'5522.5
2014-Oct-16 01:07N 37°09' E 024°39'3722.4
2014-Oct-15 23:28N 36°43' E 025°12'2022.4
2014-Oct-15 22:33N 36°25' E 025°24'0 0.1
2014-Oct-15 21:33N 36°25' E 025°25'1616.4
2014-Oct-15 20:33N 36°35' E 025°41'2222.0
2014-Oct-15 19:33N 36°41' E 026°07'2222.3
2014-Oct-15 18:33N 36°48' E 026°34'2222.0
2014-Oct-15 17:33N 36°53' E 027°00'1413.7
2014-Oct-15 16:32N 36°54' E 027°18'1211.3
2014-Oct-15 15:30N 36°42' E 027°21'2119.8
2014-Oct-15 14:28N 36°33' E 027°43'65 4.7
2014-Oct-15 00:33N 36°46' E 026°23'2222.3
2014-Oct-14 23:34N 36°39' E 025°57'2222.1
2014-Oct-14 22:34N 36°32' E 025°31'10 9.8
2014-Oct-14 21:32N 36°23' E 025°26'1010.5
2014-Oct-14 20:33N 36°32' E 025°19'2221.6
2014-Oct-14 19:33N 36°50' E 025°04'2222.2
2014-Oct-14 18:33N 37°05' E 024°44'2221.7
2014-Oct-14 17:33N 37°18' E 024°21'3022.2
2014-Oct-14 16:12N 37°35' E 023°51'1421.7
2014-Oct-14 15:34N 37°46' E 023°40'1110.2
2014-Oct-14 14:31N 37°56' E 023°38'0 0.0
2014-Oct-14 13:31N 37°56' E 023°38'0 0.0
2014-Oct-14 12:31N 37°56' E 023°38'0 0.0
2014-Oct-14 11:33N 37°56' E 023°38'0 0.0
2014-Oct-14 10:33N 37°56' E 023°38'0 0.0
2014-Oct-14 09:33N 37°56' E 023°38'0 0.0
2014-Oct-14 08:33N 37°56' E 023°38'0 0.0
2014-Oct-14 07:33N 37°56' E 023°38'0 0.0
2014-Oct-14 06:33N 37°56' E 023°38'0 0.0
2014-Oct-14 05:33N 37°56' E 023°38'0 0.0
2014-Oct-14 04:33N 37°56' E 023°38'1414.4
2014-Oct-14 03:34N 37°43' E 023°44'2622.5
2014-Oct-14 02:24N 37°25' E 024°08'1922.7
2014-Oct-14 01:33N 37°15' E 024°28'2322.8
2014-Oct-14 00:33N 37°00' E 024°50'2322.7
2014-Oct-13 23:33N 36°44' E 025°10'2222.5
2014-Oct-13 22:33N 36°25' E 025°25'1 0.8
2014-Oct-13 21:33N 36°24' E 025°25'1616.0
2014-Oct-13 20:34N 36°35' E 025°40'2222.1
2014-Oct-13 19:33N 36°41' E 026°06'  

Dump ship's entire track history